Archival Weather

Snohomish County (Paine Fld)

Everett, Washington (KPAE)

Report from: Wednesday, November 22, 2023 12:53 PM PST
Current time: Sunday, June 16, 2024 11:47 PM PDT

Current weather – Weather history – Daily summaries
Weather forecast

Temperature8.9°C (48.0°F)
Wind chill6.9°C (44.3°F)
Dew point4.4°C (39.9°F)
Winds 7 kts (3.6 m/s, 8.1 mph) North-Northwest (340°)
Visibility10 mi. (16.1 km)
Clouds Ceiling: Broken clouds 2,200 ft. (671 m)
Altimeter30.39 in.Hg (1029 mB)
Relative humidity73 %
Density altitude-1,153 ft. (-352 m)
Sea-level pressure102.9 kPa (1029 mB, 30.40 in.Hg)
Remarks Automated weather observing station with precipitation discriminator
Pressure falling, then rising
Flight conditions Marginal Visual Meteorological Conditions
Raw dataKPAE 222053Z 34007KT 10SM BKN022 09/04 A3039 RMK AO2 SLP294 T00890044 55001
An error has occurred. This application may no longer respond until reloaded. Reload 🗙